Time;durP1;ratioP1;P1;durP2;ratioP2;P2;SDS_P1;SDS_P2;PMS_P1;PMS_P2;Temp;Humidity;BMP_temperature;BMP_pressure;BME280_temperature;BME280_humidity;BME280_pressure;Samples;Min_cycle;Max_cycle;Signal;HPM_P1;HPM_P2
2022/07/18 00:00:16;;;;;;;4.47;3.60;;;;;;;20.05;50.88;102338.94;6244039;23;20035;-65
2022/07/18 00:02:41;;;;;;;5.78;3.60;;;;;;;20.02;51.15;102328.22;6243988;23;20079;-65
2022/07/18 00:05:07;;;;;;;8.10;3.72;;;;;;;19.98;51.17;102330.75;6243905;23;20420;-65
2022/07/18 00:07:32;;;;;;;7.53;3.90;;;;;;;20.00;51.26;102324.81;6244617;23;20005;-65
2022/07/18 00:09:57;;;;;;;9.35;4.03;;;;;;;19.96;51.32;102324.53;6242389;23;20090;-65
2022/07/18 00:12:23;;;;;;;4.68;3.80;;;;;;;19.94;51.11;102328.78;6242819;23;20058;-65
2022/07/18 00:14:49;;;;;;;6.30;3.70;;;;;;;19.89;51.16;102329.63;6244182;23;20447;-66
2022/07/18 00:17:14;;;;;;;10.43;4.15;;;;;;;19.84;51.04;102323.94;6244068;23;20012;-65
2022/07/18 00:19:39;;;;;;;6.85;4.15;;;;;;;19.81;50.79;102325.38;6243367;23;20077;-65
2022/07/18 00:22:08;;;;;;;6.30;4.00;;;;;;;19.78;50.83;102316.63;6243565;23;20007;-65
2022/07/18 00:24:34;;;;;;;9.55;3.92;;;;;;;19.75;50.90;102314.38;6244960;23;20050;-66
2022/07/18 00:27:00;;;;;;;7.95;3.75;;;;;;;19.68;50.90;102314.63;6245404;23;20418;-65
2022/07/18 00:29:26;;;;;;;6.70;3.70;;;;;;;19.65;50.90;102303.06;6246269;23;20007;-65
2022/07/18 00:31:51;;;;;;;7.38;3.80;;;;;;;19.65;51.09;102308.72;6246134;23;20003;-65
2022/07/18 00:34:17;;;;;;;7.38;4.22;;;;;;;19.61;51.08;102303.66;6244464;23;20438;-65
2022/07/18 00:36:42;;;;;;;6.50;4.15;;;;;;;19.58;51.62;102295.72;6244434;23;20018;-65
2022/07/18 00:39:07;;;;;;;6.05;3.78;;;;;;;19.60;51.37;102301.91;6245596;23;20320;-65
2022/07/18 00:41:35;;;;;;;6.47;4.07;;;;;;;19.56;51.44;102295.13;6245003;23;20416;-65
2022/07/18 00:44:01;;;;;;;8.07;4.15;;;;;;;19.56;51.52;102294.31;6245535;23;20435;-65
2022/07/18 00:46:28;;;;;;;8.32;4.18;;;;;;;19.51;51.38;102289.50;6245620;23;20012;-65
2022/07/18 00:48:54;;;;;;;8.68;4.20;;;;;;;19.54;51.40;102299.38;6245344;23;20000;-65
2022/07/18 00:51:20;;;;;;;9.27;4.22;;;;;;;19.45;51.43;102289.78;6243748;23;20010;-65
2022/07/18 00:53:47;;;;;;;9.50;4.60;;;;;;;19.41;51.47;102294.25;6244981;23;20008;-65
2022/07/18 00:56:16;;;;;;;11.23;4.40;;;;;;;19.33;51.75;102290.84;6245727;23;20371;-65
2022/07/18 00:58:43;;;;;;;8.98;4.55;;;;;;;19.35;51.57;102288.63;6245695;22;20087;-65
2022/07/18 01:03:52;;;;;;;7.40;4.35;;;;;;;19.31;51.07;102283.84;6244221;23;20450;-65
2022/07/18 01:06:17;;;;;;;12.18;4.53;;;;;;;19.26;51.75;102281.84;6246285;23;20000;-66
2022/07/18 01:08:43;;;;;;;8.40;4.22;;;;;;;19.29;51.40;102280.44;6244482;23;20407;-65
2022/07/18 01:11:09;;;;;;;8.40;4.60;;;;;;;19.24;51.72;102280.44;6245335;23;20416;-66
2022/07/18 01:13:35;;;;;;;7.85;4.50;;;;;;;19.22;51.93;102277.06;6243936;23;20359;-66
2022/07/18 01:16:00;;;;;;;8.35;4.70;;;;;;;19.18;51.58;102273.97;6243748;23;20034;-66
2022/07/18 01:18:26;;;;;;;6.47;4.60;;;;;;;19.18;51.69;102273.97;6244879;23;20324;-65
2022/07/18 01:20:51;;;;;;;11.35;5.10;;;;;;;19.11;51.73;102265.75;6244429;23;20053;-66
2022/07/18 01:23:17;;;;;;;10.00;5.18;;;;;;;19.10;51.83;102271.69;6245217;23;20011;-65
2022/07/18 01:25:43;;;;;;;6.47;4.28;;;;;;;19.04;52.13;102267.97;6245061;23;20387;-66
2022/07/18 01:28:08;;;;;;;7.32;4.72;;;;;;;19.05;52.04;102271.63;6246340;23;20079;-65
2022/07/18 01:30:33;;;;;;;8.77;5.00;;;;;;;19.05;51.82;102271.63;6244877;23;20360;-65
2022/07/18 01:33:01;;;;;;;9.82;4.72;;;;;;;19.05;51.89;102269.66;6245169;23;20004;-65
2022/07/18 01:35:27;;;;;;;6.68;4.57;;;;;;;18.99;51.75;102267.13;6244829;23;20015;-65
2022/07/18 01:37:54;;;;;;;6.43;4.75;;;;;;;18.96;51.92;102273.31;6245234;23;20026;-65
2022/07/18 01:40:20;;;;;;;10.18;4.72;;;;;;;18.93;51.90;102263.44;6245689;23;20006;-65
2022/07/18 01:42:45;;;;;;;9.00;4.65;;;;;;;18.89;52.02;102268.75;6245035;23;20006;-66
2022/07/18 01:45:11;;;;;;;8.90;5.03;;;;;;;18.81;51.86;102265.63;6244327;23;20412;-65
2022/07/18 01:47:36;;;;;;;6.70;4.47;;;;;;;18.87;51.80;102273.84;6245052;23;20009;-65
2022/07/18 01:50:04;;;;;;;11.23;4.72;;;;;;;18.84;52.08;102270.72;6243594;23;20004;-65
2022/07/18 01:52:29;;;;;;;8.90;5.05;;;;;;;18.77;52.21;102273.78;6243114;23;20004;-65
2022/07/18 01:54:55;;;;;;;10.25;5.43;;;;;;;18.78;51.66;102272.66;6244700;23;20443;-65
2022/07/18 01:57:20;;;;;;;8.07;4.65;;;;;;;18.75;52.13;102266.75;6243115;22;20428;-66
2022/07/18 01:59:45;;;;;;;9.90;4.50;;;;;;;18.73;52.00;102269.81;6244413;23;20008;-66
2022/07/18 02:02:10;;;;;;;9.10;4.97;;;;;;;18.76;52.03;102269.28;6244834;23;20000;-66
2022/07/18 02:07:20;;;;;;;6.57;5.15;;;;;;;18.70;52.27;102264.72;6244899;23;20019;-66
2022/07/18 02:09:45;;;;;;;9.10;5.13;;;;;;;18.67;52.62;102256.84;6246276;23;20004;-65
2022/07/18 02:12:11;;;;;;;6.53;4.60;;;;;;;18.62;52.50;102268.03;6244908;23;20004;-65
2022/07/18 02:14:36;;;;;;;8.73;4.85;;;;;;;18.62;52.71;102259.59;6244225;23;20026;-65
2022/07/18 02:17:01;;;;;;;8.13;5.03;;;;;;;18.61;52.61;102249.47;6246180;23;20008;-67
2022/07/18 02:19:27;;;;;;;7.93;4.90;;;;;;;18.57;52.82;102256.78;6244300;23;20008;-66
2022/07/18 02:21:52;;;;;;;9.10;4.95;;;;;;;18.53;52.74;102250.00;6244179;23;20087;-65
2022/07/18 02:24:17;;;;;;;8.25;5.18;;;;;;;18.52;52.86;102240.72;6243483;23;20442;-65
2022/07/18 02:26:42;;;;;;;9.20;5.35;;;;;;;18.48;53.08;102247.16;6244288;23;20455;-66
2022/07/18 02:29:08;;;;;;;14.32;5.47;;;;;;;18.51;52.73;102247.47;6243481;23;20008;-66
2022/07/18 02:31:33;;;;;;;8.43;4.93;;;;;;;18.44;52.82;102240.41;6244068;23;20020;-66
2022/07/18 02:33:58;;;;;;;11.95;5.40;;;;;;;18.40;52.89;102248.53;6242590;23;20000;-66
2022/07/18 02:36:24;;;;;;;10.48;5.03;;;;;;;18.36;52.93;102241.75;6244376;23;20004;-66
2022/07/18 02:38:49;;;;;;;8.05;4.88;;;;;;;18.38;52.62;102236.69;6244074;23;20427;-66
2022/07/18 02:41:14;;;;;;;11.00;5.00;;;;;;;18.34;52.67;102244.81;6243936;23;20018;-66
2022/07/18 02:43:40;;;;;;;10.90;5.22;;;;;;;18.33;52.99;102237.50;6244121;23;20778;-65
2022/07/18 02:46:05;;;;;;;11.27;5.40;;;;;;;18.30;53.22;102242.81;6244049;23;20004;-66
2022/07/18 02:48:30;;;;;;;12.18;5.03;;;;;;;18.31;53.25;102230.47;6242586;23;20004;-66
2022/07/18 02:50:55;;;;;;;9.32;5.40;;;;;;;18.26;53.24;102234.09;6244214;23;20335;-65
2022/07/18 02:53:23;;;;;;;6.32;5.00;;;;;;;18.26;52.96;102230.44;6242904;23;20062;-65
2022/07/18 02:55:50;;;;;;;12.02;5.10;;;;;;;18.23;53.36;102233.78;6243839;23;20024;-65
2022/07/18 02:58:16;;;;;;;9.65;5.22;;;;;;;18.23;53.38;102234.63;6242768;22;20015;-65
2022/07/18 03:00:41;;;;;;;6.90;5.03;;;;;;;18.22;53.28;102237.72;6242850;23;20050;-65
2022/07/18 03:03:07;;;;;;;7.85;5.07;;;;;;;18.24;53.24;102235.50;6244233;23;20428;-65
2022/07/18 03:05:32;;;;;;;7.93;4.63;;;;;;;18.22;53.38;102230.13;6243253;23;20004;-65
2022/07/18 03:07:57;;;;;;;8.27;5.15;;;;;;;18.21;53.57;102239.69;6243083;23;20015;-65
2022/07/18 03:10:23;;;;;;;9.70;5.20;;;;;;;18.15;53.71;102230.34;6243236;23;20011;-65
2022/07/18 03:12:48;;;;;;;7.93;5.07;;;;;;;18.13;53.90;102226.16;6243221;23;20010;-65
2022/07/18 03:15:13;;;;;;;9.27;5.10;;;;;;;18.12;53.58;102213.22;6242769;23;20011;-65
2022/07/18 03:17:39;;;;;;;9.70;5.35;;;;;;;18.04;53.84;102213.72;6242713;23;20092;-65
2022/07/18 03:20:05;;;;;;;11.80;5.72;;;;;;;18.05;54.00;102201.38;6244388;23;20057;-65
2022/07/18 03:22:30;;;;;;;8.18;5.05;;;;;;;18.04;53.98;102203.34;6243692;23;20391;-65
2022/07/18 03:24:55;;;;;;;12.98;4.90;;;;;;;18.04;53.91;102202.50;6243794;23;20031;-66
2022/07/18 03:27:20;;;;;;;9.35;4.78;;;;;;;18.01;54.03;102203.88;6243981;23;20340;-65
2022/07/18 03:29:46;;;;;;;8.48;4.88;;;;;;;17.99;53.93;102199.63;6243843;23;20008;-65
2022/07/18 03:32:11;;;;;;;8.95;4.78;;;;;;;17.96;53.92;102198.22;6244723;23;20000;-65
2022/07/18 03:34:36;;;;;;;11.27;5.43;;;;;;;17.89;53.91;102198.44;6243633;23;20012;-65
2022/07/18 03:37:02;;;;;;;7.35;5.38;;;;;;;17.89;53.61;102192.00;6243594;23;20008;-65
2022/07/18 03:39:27;;;;;;;10.98;5.38;;;;;;;17.88;53.75;102195.88;6243859;23;20008;-65
2022/07/18 03:41:52;;;;;;;12.70;5.50;;;;;;;17.89;53.93;102195.63;6243799;23;20008;-65
2022/07/18 03:44:18;;;;;;;12.30;5.82;;;;;;;17.82;54.05;102197.00;6242454;23;20000;-65
2022/07/18 03:46:43;;;;;;;13.07;5.53;;;;;;;17.80;53.92;102200.06;6243873;23;20005;-64
2022/07/18 03:49:09;;;;;;;11.35;5.30;;;;;;;17.82;54.03;102197.81;6243762;23;20009;-65
2022/07/18 03:51:34;;;;;;;11.60;4.85;;;;;;;17.80;54.11;102197.28;6243297;23;20000;-65
2022/07/18 03:53:59;;;;;;;12.23;5.55;;;;;;;17.78;54.13;102202.28;6244719;23;20007;-65
2022/07/18 03:56:25;;;;;;;13.25;5.45;;;;;;;17.75;54.14;102196.38;6243573;23;20008;-65
2022/07/18 03:58:53;;;;;;;20.20;5.63;;;;;;;17.76;54.10;102198.03;6243764;22;20019;-65
2022/07/18 04:01:18;;;;;;;12.73;5.85;;;;;;;17.73;54.07;102198.56;6246495;23;20071;-65
2022/07/18 04:03:44;;;;;;;10.80;5.70;;;;;;;17.73;54.31;102193.81;6246212;23;20454;-65
2022/07/18 04:06:09;;;;;;;13.95;5.80;;;;;;;17.71;54.66;102197.97;6245877;23;20071;-66
2022/07/18 04:08:34;;;;;;;12.95;5.93;;;;;;;17.71;54.45;102198.81;6246545;23;20004;-65
2022/07/18 04:10:59;;;;;;;10.82;5.65;;;;;;;17.67;54.48;102195.72;6243723;23;20074;-65
2022/07/18 04:13:25;;;;;;;7.25;5.50;;;;;;;17.69;54.48;102192.66;6245213;23;20442;-66
2022/07/18 04:15:50;;;;;;;9.10;5.72;;;;;;;17.70;54.33;102190.69;6246595;23;20004;-65
2022/07/18 04:18:15;;;;;;;13.68;5.80;;;;;;;17.69;54.44;102191.81;6245324;23;20012;-65
2022/07/18 04:20:41;;;;;;;12.90;5.78;;;;;;;17.67;54.59;102189.25;6245325;23;20004;-65
2022/07/18 04:23:08;;;;;;;11.55;6.10;;;;;;;17.61;55.00;102188.38;6245819;23;20008;-65
2022/07/18 04:25:38;;;;;;;10.00;5.70;;;;;;;17.69;54.77;102184.22;6245762;23;20436;-65
2022/07/18 04:28:05;;;;;;;10.75;5.65;;;;;;;17.71;54.69;102178.31;6246683;23;20071;-65
2022/07/18 04:30:31;;;;;;;15.80;6.20;;;;;;;17.69;55.04;102172.16;6246112;23;20004;-65
2022/07/18 04:32:57;;;;;;;13.00;6.60;;;;;;;17.73;54.87;102170.50;6244658;23;20432;-65
2022/07/18 04:35:23;;;;;;;14.95;6.70;;;;;;;17.72;55.23;102163.16;6246499;23;20057;-65
2022/07/18 04:37:49;;;;;;;17.45;6.40;;;;;;;17.75;55.01;102169.13;6246008;23;20007;-65
2022/07/18 04:40:15;;;;;;;15.45;5.90;;;;;;;17.78;54.92;102167.75;6245821;23;20004;-65
2022/07/18 04:42:41;;;;;;;14.23;5.95;;;;;;;17.77;55.13;102160.44;6247051;23;20007;-65
2022/07/18 04:45:07;;;;;;;17.42;6.07;;;;;;;17.76;55.10;102175.59;6245282;23;20012;-65
2022/07/18 04:47:33;;;;;;;15.05;6.07;;;;;;;17.79;55.24;102173.09;6245372;23;20008;-65
2022/07/18 04:49:58;;;;;;;12.88;6.10;;;;;;;17.78;55.31;102167.75;6245768;23;20467;-65
2022/07/18 04:52:23;;;;;;;13.77;6.28;;;;;;;17.76;55.33;102170.81;6247261;23;20016;-65
2022/07/18 04:54:50;;;;;;;18.25;6.22;;;;;;;17.80;55.63;102166.38;6244800;23;20087;-65
2022/07/18 04:57:16;;;;;;;12.98;6.63;;;;;;;17.84;55.74;102173.16;6246376;22;20015;-65
2022/07/18 04:59:41;;;;;;;12.73;6.90;;;;;;;17.85;55.60;102182.41;6245226;23;20004;-64
2022/07/18 05:02:08;;;;;;;15.52;6.75;;;;;;;17.89;55.84;102175.13;6245162;23;20015;-65
2022/07/18 05:04:33;;;;;;;11.40;6.30;;;;;;;17.93;55.57;102176.28;6244764;23;20023;-65
2022/07/18 05:06:59;;;;;;;10.93;6.68;;;;;;;17.93;56.15;102173.47;6244715;23;20008;-65
2022/07/18 05:09:24;;;;;;;16.65;6.47;;;;;;;18.00;55.68;102176.91;6244711;23;20039;-65
2022/07/18 05:11:49;;;;;;;14.88;7.00;;;;;;;18.03;55.46;102175.50;6245872;23;20015;-65
2022/07/18 05:14:15;;;;;;;12.30;5.80;;;;;;;18.09;54.99;102180.03;6244282;23;20032;-65
2022/07/18 05:16:40;;;;;;;13.25;7.22;;;;;;;18.10;55.04;102176.09;6245453;23;20014;-65
2022/07/18 05:19:05;;;;;;;10.25;6.38;;;;;;;18.13;55.52;102175.56;6245587;23;20026;-65
2022/07/18 05:21:30;;;;;;;15.52;7.38;;;;;;;18.17;56.01;102173.06;6243263;23;20010;-65
2022/07/18 05:23:56;;;;;;;14.30;6.25;;;;;;;18.17;56.06;102181.50;6245502;23;20004;-65
2022/07/18 05:26:21;;;;;;;14.35;6.47;;;;;;;18.12;56.67;102179.50;6245813;23;20435;-65
2022/07/18 05:28:47;;;;;;;21.73;6.85;;;;;;;18.17;56.50;102179.53;6244770;23;20000;-65
2022/07/18 05:31:12;;;;;;;10.88;6.25;;;;;;;18.24;56.51;102182.94;6243244;23;20046;-66
2022/07/18 05:33:37;;;;;;;12.70;6.22;;;;;;;18.25;56.18;102179.00;6245081;23;20004;-65
2022/07/18 05:36:04;;;;;;;12.85;6.55;;;;;;;18.24;56.53;102182.94;6243654;23;20102;-65
2022/07/18 05:38:29;;;;;;;13.20;4.32;;;;;;;18.48;56.90;102177.72;6243849;23;20095;-66
2022/07/18 05:40:54;;;;;;;4.57;2.88;;;;;;;18.71;55.37;102175.59;6244695;23;20385;-68
2022/07/18 05:43:20;;;;;;;6.93;3.22;;;;;;;18.91;54.87;102174.81;6243617;23;20015;-67
2022/07/18 05:45:45;;;;;;;4.15;3.10;;;;;;;19.05;54.65;102175.97;6244592;23;20019;-67
2022/07/18 05:48:13;;;;;;;9.77;4.07;;;;;;;19.20;54.34;102176.00;6242412;23;20004;-67
2022/07/18 05:50:38;;;;;;;8.55;4.05;;;;;;;19.30;54.46;102176.00;6242864;23;20012;-67
2022/07/18 05:53:04;;;;;;;9.55;4.25;;;;;;;19.43;54.54;102179.41;6245041;23;20012;-67
2022/07/18 05:55:29;;;;;;;7.75;3.47;;;;;;;19.53;54.17;102176.56;6244530;23;20008;-67
2022/07/18 05:57:54;;;;;;;7.00;3.95;;;;;;;19.60;54.21;102183.63;6241191;22;20421;-68
2022/07/18 06:00:20;;;;;;;9.77;4.00;;;;;;;19.69;54.15;102175.50;6244576;23;20008;-67
2022/07/18 06:02:48;;;;;;;8.35;4.00;;;;;;;19.79;53.61;102175.47;6241167;23;20046;-68
2022/07/18 06:05:14;;;;;;;7.15;4.05;;;;;;;19.85;53.58;102174.34;6241022;23;20401;-67
2022/07/18 06:07:39;;;;;;;12.85;4.57;;;;;;;19.96;53.21;102174.31;6241455;23;20061;-67
2022/07/18 06:10:05;;;;;;;10.18;3.95;;;;;;;20.01;53.25;102180.81;6242982;23;20015;-66
2022/07/18 06:12:31;;;;;;;12.02;3.33;;;;;;;20.05;53.01;102187.56;6244647;23;20026;-68
2022/07/18 06:14:57;;;;;;;8.50;4.40;;;;;;;20.17;53.14;102187.25;6240538;23;20030;-68
2022/07/18 06:17:23;;;;;;;7.32;3.80;;;;;;;20.24;52.42;102182.16;6242043;23;20016;-68
2022/07/18 06:19:48;;;;;;;7.88;3.70;;;;;;;20.29;52.07;102176.50;6243789;23;20018;-68
2022/07/18 06:22:14;;;;;;;9.13;3.55;;;;;;;20.35;51.86;102164.06;6242677;23;20004;-68
2022/07/18 06:24:39;;;;;;;6.47;3.53;;;;;;;20.39;50.54;102161.50;6244365;23;20012;-70
2022/07/18 06:27:04;;;;;;;6.90;3.40;;;;;;;20.48;50.88;102153.31;6242180;23;20019;-68
2022/07/18 06:29:29;;;;;;;9.68;3.58;;;;;;;20.52;49.80;102154.47;6242618;23;20518;-68
2022/07/18 06:31:55;;;;;;;8.73;3.83;;;;;;;20.55;49.24;102153.88;6242287;23;20046;-68
2022/07/18 06:34:20;;;;;;;5.07;3.15;;;;;;;20.61;49.28;102146.25;6244137;23;20008;-69
2022/07/18 06:36:45;;;;;;;6.82;3.05;;;;;;;20.68;49.11;102141.13;6242531;23;20004;-69
2022/07/18 06:39:11;;;;;;;6.70;3.67;;;;;;;20.76;49.72;102146.16;6240844;23;20039;-69
2022/07/18 06:42:17;;;;;;;7.13;3.35;;;;;;;20.81;49.10;102149.78;6236186;23;20062;-68
2022/07/18 06:49:47;;;;;;;7.70;3.42;;;;;;;20.96;48.62;102142.38;6001670;23;20061;-73
2022/07/18 07:10:45;;;;;;;10.30;3.60;;;;;;;21.48;47.12;102138.06;6058967;23;20022;-72
2022/07/18 07:13:53;;;;;;;;;;;;;;;;;;;;;
2022/07/18 07:17:12;;;;;;;;;;;;;;;;;;;;;
2022/07/18 07:20:20;;;;;;;12.15;4.30;;;;;;;21.81;44.52;102140.00;6095305;23;20080;-72
2022/07/18 07:26:40;;;;;;;8.35;3.38;;;;;;;21.87;43.15;102142.78;6169652;23;20036;-77
2022/07/18 07:33:16;;;;;;;6.20;2.88;;;;;;;22.09;43.19;102154.41;6233171;23;20496;-70
2022/07/18 07:39:53;;;;;;;8.43;2.90;;;;;;;22.26;42.13;102139.84;6233853;23;20004;-71
2022/07/18 07:50:22;;;;;;;8.27;2.50;;;;;;;22.64;41.54;102134.28;6155673;23;20039;-69
2022/07/18 08:01:49;;;;;;;3.30;2.00;;;;;;;22.84;41.05;102107.66;6119751;23;20425;-70
2022/07/18 08:07:50;;;;;;;;;;;;;;;;;;;;;
2022/07/18 08:28:54;;;;;;;6.77;2.03;;;;;;;23.79;37.75;102082.88;5950531;24;20396;-70
2022/07/18 08:35:41;;;;;;;4.75;2.33;;;;;;;24.02;37.99;102106.53;5883850;24;20060;-71
2022/07/18 09:56:09;;;;;;;5.80;2.35;;;;;;;26.13;37.03;102088.66;5784372;24;20021;-72
2022/07/18 09:59:33;;;;;;;4.20;2.10;;;;;;;26.34;36.89;102099.41;5946262;24;20008;-71
2022/07/18 10:16:29;;;;;;;6.03;1.95;;;;;;;26.50;37.07;102092.13;6004416;23;20104;-69
2022/07/18 10:19:20;;;;;;;;;;;;;;;26.49;36.98;102089.59;5916899;24;20028;-69
2022/07/18 10:22:35;;;;;;;;;;;;;;;;;;;;;
2022/07/18 10:25:26;;;;;;;3.90;1.83;;;;;;;26.74;36.54;102080.25;5990464;23;20158;-71
2022/07/18 10:28:26;;;;;;;7.57;2.35;;;;;;;26.84;35.82;102091.34;6073353;23;20013;-70
2022/07/18 10:32:02;;;;;;;4.80;2.20;;;;;;;26.79;37.04;102085.78;6119908;23;20010;-72
2022/07/18 10:42:14;;;;;;;6.50;2.10;;;;;;;27.24;35.88;102082.63;6017042;23;20021;-70
2022/07/18 11:02:56;;;;;;;5.07;1.88;;;;;;;27.71;33.90;102061.91;6179044;23;20020;-72
2022/07/18 11:51:51;;;;;;;6.32;2.17;;;;;;;28.68;32.28;102039.06;5893882;24;20066;-69
2022/07/18 11:58:54;;;;;;;;;;;;;;;;;;;;;
2022/07/18 12:02:19;;;;;;;;;;;;;;;;;;;;;
2022/07/18 12:05:51;;;;;;;;;;;;;;;;;;;;;
2022/07/18 12:41:12;;;;;;;3.78;2.28;;;;;;;29.24;32.54;101998.72;5866661;24;20041;-74
2022/07/18 12:51:16;;;;;;;4.30;1.98;;;;;;;29.35;32.77;102002.78;5867838;24;20105;-75
2022/07/18 13:22:29;;;;;;;;;;;;;;;;;;;;;
2022/07/18 13:44:33;;;;;;;5.60;2.20;;;;;;;29.71;31.37;101949.69;5796122;24;20042;-73
2022/07/18 13:47:10;;;;;;;;;;;;;;;;;;;;;
2022/07/18 14:08:02;;;;;;;4.32;1.90;;;;;;;30.07;31.02;101934.56;5853985;24;20105;-73
2022/07/18 16:07:29;;;;;;;;;;;;;;;;;;;;;
2022/07/18 16:10:54;;;;;;;4.00;1.98;;;;;;;29.95;29.41;101863.00;5948326;24;20084;-68
2022/07/18 16:28:15;;;;;;;3.40;1.95;;;;;;;29.67;29.89;101846.59;5950924;24;20050;-70
2022/07/18 16:31:32;;;;;;;4.35;1.90;;;;;;;29.68;30.32;101847.44;5916948;24;20512;-69
2022/07/18 16:42:10;;;;;;;;;;;;;;;;;;;;;
2022/07/18 16:53:00;;;;;;;;;;;;;;;;;;;;;
2022/07/18 16:56:35;;;;;;;;;;;;;;;;;;;;;
2022/07/18 17:00:13;;;;;;;4.28;1.98;;;;;;;29.36;29.77;101821.44;6001778;23;20408;-72
2022/07/18 17:07:24;;;;;;;;;;;;;;;;;;;;;
2022/07/18 17:42:49;;;;;;;;;;;;;;;;;;;;;
2022/07/18 17:49:15;;;;;;;5.43;2.47;;;;;;;29.09;31.18;101789.53;5897172;24;20049;-68
2022/07/18 17:59:23;;;;;;;3.35;2.03;;;;;;;28.99;31.96;101792.84;5929726;23;20017;-67
2022/07/18 18:06:34;;;;;;;;;;;;;;;;;;;;;
2022/07/18 18:12:41;;;;;;;4.88;2.42;;;;;;;28.81;31.46;101774.25;6148432;23;20017;-70
2022/07/18 18:19:23;;;;;;;4.00;2.55;;;;;;;28.81;32.51;101783.66;6175238;23;20083;-71
2022/07/18 18:22:46;;;;;;;3.85;2.40;;;;;;;28.77;33.63;101781.84;6057912;23;20017;-69
2022/07/18 18:26:16;;;;;;;;;;;;;;;;;;;;;
2022/07/18 18:32:59;;;;;;;;;;;;;;;;;;;;;
2022/07/18 18:43:31;;;;;;;14.65;3.28;;;;;;;28.57;35.83;101783.56;6109076;22;20011;-67
2022/07/18 18:46:31;;;;;;;10.70;2.90;;;;;;;28.50;37.07;101786.19;6071393;23;20010;-67
2022/07/18 18:49:35;;;;;;;6.55;2.67;;;;;;;28.49;36.83;101782.53;6274132;22;20030;-67
2022/07/18 19:03:35;;;;;;;7.00;2.70;;;;;;;28.37;38.31;101768.19;6033894;23;20079;-68
2022/07/18 19:50:18;;;;;;;11.05;4.13;;;;;;;27.82;44.31;101783.63;5977605;24;20054;-70
2022/07/18 20:14:00;;;;;;;;;;;;;;;;;;;;;
2022/07/18 20:35:07;;;;;;;18.70;5.50;;;;;;;27.15;47.45;101788.25;6101885;23;20037;-67
2022/07/18 20:38:26;;;;;;;;;;;;;;;;;;;;;
2022/07/18 20:59:07;;;;;;;15.05;4.88;;;;;;;26.80;47.82;101784.69;6226423;23;20096;-71
2022/07/18 21:13:03;;;;;;;;;;;;;;;;;;;;;
2022/07/18 21:37:39;;;;;;;17.00;5.65;;;;;;;26.26;48.23;101775.78;5845059;24;20472;-67
2022/07/18 21:47:57;;;;;;;11.90;5.78;;;;;;;26.17;47.85;101775.78;5678632;25;20343;-66
2022/07/18 21:54:26;;;;;;;19.55;6.45;;;;;;;25.97;48.72;101774.47;5822408;24;20070;-65
2022/07/18 21:58:11;;;;;;;27.08;7.40;;;;;;;26.09;48.06;101786.00;5826071;24;20486;-67
2022/07/18 22:05:14;;;;;;;17.20;7.30;;;;;;;25.98;48.56;101779.00;5910781;24;20068;-70
2022/07/18 22:08:08;;;;;;;;;;;;;;;;;;;;;
2022/07/18 22:14:52;;;;;;;16.88;7.45;;;;;;;25.85;48.44;101768.63;6144246;23;20014;-69
2022/07/18 22:21:18;;;;;;;17.50;7.10;;;;;;;25.79;48.97;101769.97;6065955;23;20078;-71
2022/07/18 22:24:52;;;;;;;16.95;7.47;;;;;;;25.77;48.59;101772.25;6116947;23;20030;-68
2022/07/18 22:27:59;;;;;;;17.90;6.95;;;;;;;25.65;48.52;101762.38;6028213;23;20369;-67
2022/07/18 22:30:24;;;;;;;12.13;6.40;;;;;;;25.60;49.11;101764.56;6072372;23;20012;-65
2022/07/18 22:32:50;;;;;;;16.38;7.38;;;;;;;25.55;49.18;101771.25;6238379;23;20361;-65
2022/07/18 22:35:15;;;;;;;15.27;6.75;;;;;;;25.53;49.05;101767.06;6238408;23;20000;-66
2022/07/18 22:37:41;;;;;;;17.35;6.80;;;;;;;25.50;49.02;101764.88;6240677;22;20027;-65
2022/07/18 22:40:07;;;;;;;12.05;7.05;;;;;;;25.42;49.18;101767.38;6242163;23;20004;-65
2022/07/18 22:42:32;;;;;;;12.05;6.15;;;;;;;25.45;49.17;101765.88;6244607;23;20459;-66
2022/07/18 22:44:58;;;;;;;13.00;6.95;;;;;;;25.40;48.64;101769.72;6243897;23;20012;-66
2022/07/18 22:47:23;;;;;;;12.35;6.78;;;;;;;25.38;48.83;101765.53;6243620;23;20058;-66
2022/07/18 22:49:48;;;;;;;18.77;6.53;;;;;;;25.34;48.66;101768.19;6245023;23;20007;-66
2022/07/18 22:52:13;;;;;;;13.90;6.38;;;;;;;25.33;48.36;101768.53;6244169;23;20036;-66
2022/07/18 22:54:39;;;;;;;14.13;6.28;;;;;;;25.30;48.99;101761.50;6245704;23;20066;-66
2022/07/18 22:57:06;;;;;;;13.18;6.70;;;;;;;25.30;49.22;101763.50;6244339;23;20004;-66
2022/07/18 22:59:34;;;;;;;12.25;7.28;;;;;;;25.20;49.14;101759.81;6245809;23;20035;-66
2022/07/18 23:02:00;;;;;;;14.40;6.57;;;;;;;25.24;48.73;101762.00;6244816;23;20428;-66
2022/07/18 23:04:25;;;;;;;13.45;7.13;;;;;;;25.24;48.81;101764.84;6244299;23;20004;-66
2022/07/18 23:06:51;;;;;;;12.88;6.28;;;;;;;25.18;49.39;101761.31;6245660;23;20004;-66
2022/07/18 23:09:16;;;;;;;12.98;6.88;;;;;;;25.16;49.18;101758.81;6244322;23;20011;-66
2022/07/18 23:11:41;;;;;;;13.70;6.97;;;;;;;25.15;49.22;101761.97;6244535;23;20432;-66
2022/07/18 23:14:07;;;;;;;11.80;5.97;;;;;;;25.10;49.19;101762.97;6245229;23;20462;-66
2022/07/18 23:16:32;;;;;;;10.95;6.00;;;;;;;25.12;49.12;101756.97;6245184;23;20016;-66
2022/07/18 23:18:59;;;;;;;12.27;6.30;;;;;;;25.10;49.52;101754.44;6244784;23;20016;-66
2022/07/18 23:21:25;;;;;;;14.98;7.43;;;;;;;25.02;49.96;101763.75;6244916;23;20000;-66
2022/07/18 23:23:50;;;;;;;14.00;6.25;;;;;;;25.04;49.62;101760.59;6244200;23;20000;-66
2022/07/18 23:26:15;;;;;;;12.23;6.10;;;;;;;25.03;49.85;101751.22;6244678;23;20009;-66
2022/07/18 23:28:40;;;;;;;11.77;6.88;;;;;;;24.97;49.93;101755.38;6244840;23;20324;-66
2022/07/18 23:31:06;;;;;;;7.18;5.60;;;;;;;24.94;50.01;101748.34;6244068;23;20084;-66
2022/07/18 23:33:31;;;;;;;10.18;6.38;;;;;;;24.95;49.28;101741.50;6244272;23;20043;-66
2022/07/18 23:35:56;;;;;;;11.98;6.00;;;;;;;24.92;49.74;101747.03;6245086;23;20004;-66
2022/07/18 23:38:21;;;;;;;12.60;6.30;;;;;;;24.90;49.56;101749.34;6243016;22;20073;-66
2022/07/18 23:40:56;;;;;;;14.13;6.35;;;;;;;24.85;49.66;101741.81;6245646;23;20043;-66
2022/07/18 23:43:21;;;;;;;9.70;5.80;;;;;;;24.84;49.59;101734.47;6244969;23;20451;-66
2022/07/18 23:45:46;;;;;;;10.98;6.55;;;;;;;24.81;49.75;101739.97;6244718;23;20004;-67
2022/07/18 23:48:12;;;;;;;10.38;5.88;;;;;;;24.79;49.72;101743.13;6244250;23;20075;-66
2022/07/18 23:50:37;;;;;;;9.27;6.32;;;;;;;24.74;49.55;101732.75;6245071;23;20008;-66
2022/07/18 23:53:02;;;;;;;14.00;6.53;;;;;;;24.73;49.57;101733.91;6244643;23;20008;-67
2022/07/18 23:55:28;;;;;;;11.20;6.18;;;;;;;24.73;49.26;101731.06;6244649;23;20008;-66
2022/07/18 23:57:53;;;;;;;11.38;6.15;;;;;;;24.66;49.56;101727.88;6243811;23;20012;-66
